createdAt,value
2023-04-22T00:00:28.869Z,26.25
2023-04-22T00:01:28.846Z,25.52
2023-04-22T00:02:28.924Z,24.71
2023-04-22T00:03:29.077Z,24.71
2023-04-22T00:04:28.863Z,23.78
2023-04-22T00:05:28.893Z,23.78
2023-04-22T00:06:28.784Z,24.18
2023-04-22T00:07:28.768Z,24.49
2023-04-22T00:08:28.758Z,23.87
2023-04-22T00:09:28.742Z,24.29
2023-04-22T00:10:28.732Z,23.77
2023-04-22T00:11:28.700Z,23.67
2023-04-22T00:12:28.710Z,23.46
2023-04-22T00:13:28.687Z,22.24
2023-04-22T00:14:28.673Z,21.31
2023-04-22T00:15:28.663Z,21.62
2023-04-22T00:16:28.705Z,21.41
2023-04-22T00:17:28.698Z,21.51
2023-04-22T00:18:28.613Z,21.00
2023-04-22T00:19:28.589Z,20.59
2023-04-22T00:20:28.580Z,21.09
2023-04-22T00:21:28.574Z,21.71
2023-04-22T00:22:28.608Z,22.53
2023-04-22T00:23:28.553Z,22.53
2023-04-22T00:24:28.548Z,22.43
2023-04-22T00:25:28.524Z,22.53
2023-04-22T00:26:28.513Z,22.84
2023-04-22T00:27:28.538Z,22.94
2023-04-22T00:28:28.481Z,22.74
2023-04-22T00:29:28.464Z,23.45
2023-04-22T00:30:28.453Z,23.35
2023-04-22T00:31:28.533Z,23.45
2023-04-22T00:32:28.477Z,23.96
2023-04-22T00:33:28.416Z,23.86
2023-04-22T00:34:28.388Z,24.27
2023-04-22T00:35:28.384Z,24.79
2023-04-22T00:36:28.382Z,25.09
2023-04-22T00:37:28.370Z,25.81
2023-04-22T00:38:28.350Z,26.22
2023-04-22T00:39:28.318Z,26.73
2023-04-22T00:40:28.323Z,26.53
2023-04-22T00:41:28.307Z,26.32
2023-04-22T00:42:28.319Z,26.53
2023-04-22T00:43:28.283Z,26.73
2023-04-22T00:44:28.272Z,26.93
2023-04-22T00:45:28.239Z,26.32
2023-04-22T00:46:28.257Z,26.83
2023-04-22T00:47:28.260Z,26.93
2023-04-22T00:48:28.977Z,27.04
2023-04-22T00:49:28.200Z,26.93
2023-04-22T00:50:28.182Z,27.45
2023-04-22T00:51:28.168Z,27.96
2023-04-22T00:52:28.171Z,28.47
2023-04-22T00:53:28.143Z,28.69
2023-04-22T00:54:28.139Z,29.00
2023-04-22T00:55:28.111Z,28.69
2023-04-22T00:56:28.113Z,29.00
2023-04-22T00:57:28.113Z,29.00
2023-04-22T00:58:28.082Z,28.69
2023-04-22T00:59:28.058Z,27.87
2023-04-22T01:00:28.171Z,27.36
2023-04-22T01:01:28.108Z,27.36
2023-04-22T01:02:28.204Z,27.05
2023-04-22T01:03:28.086Z,26.54
2023-04-22T01:04:28.015Z,25.82
2023-04-22T01:05:27.986Z,26.43
2023-04-22T01:06:27.978Z,26.03
2023-04-22T01:07:27.960Z,26.33
2023-04-22T01:08:27.947Z,25.81
2023-04-22T01:09:27.936Z,25.41
2023-04-22T01:10:27.918Z,26.23
2023-04-22T01:11:27.896Z,25.51
2023-04-22T01:12:27.941Z,24.99
2023-04-22T01:13:27.886Z,25.21
2023-04-22T01:14:27.867Z,25.20
2023-04-22T01:15:27.854Z,24.99
2023-04-22T01:16:27.879Z,24.79
2023-04-22T01:17:28.087Z,25.71
2023-04-22T01:18:27.817Z,24.88
2023-04-22T01:19:27.807Z,24.88
2023-04-22T01:20:27.797Z,23.86
2023-04-22T01:21:27.771Z,24.17
2023-04-22T01:22:27.779Z,23.35
2023-04-22T01:23:27.739Z,23.45
2023-04-22T01:24:27.748Z,23.25
2023-04-22T01:25:36.434Z,22.33
2023-04-22T01:26:28.404Z,22.74
2023-04-22T01:27:29.325Z,21.81
2023-04-22T01:28:27.701Z,21.81
2023-04-22T01:29:27.667Z,22.53
2023-04-22T01:30:27.732Z,21.92
2023-04-22T01:31:27.702Z,21.92
2023-04-22T01:32:27.727Z,21.92
2023-04-22T01:33:27.616Z,22.02
2023-04-22T01:34:27.628Z,22.42
2023-04-22T01:35:27.613Z,22.62
2023-04-22T01:36:27.590Z,23.34
2023-04-22T01:37:27.578Z,23.13
2023-04-22T01:38:27.544Z,23.54
2023-04-22T01:39:27.539Z,24.16
2023-04-22T01:40:27.546Z,24.77
2023-04-22T01:41:27.517Z,24.98
2023-04-22T01:42:27.508Z,25.90
2023-04-22T01:43:27.484Z,25.90
2023-04-22T01:44:27.471Z,26.51
2023-04-22T01:45:27.490Z,27.03
2023-04-22T01:46:27.614Z,27.12
2023-04-22T01:47:27.451Z,27.33
2023-04-22T01:48:27.423Z,27.74
2023-04-22T01:49:27.400Z,28.87
2023-04-22T01:50:27.423Z,28.77
2023-04-22T01:51:27.378Z,28.97
2023-04-22T01:52:27.383Z,29.07
2023-04-22T01:53:27.360Z,29.28
2023-04-22T01:54:27.340Z,29.79
2023-04-22T01:55:27.352Z,31.12
2023-04-22T01:56:27.334Z,31.22
2023-04-22T01:57:27.328Z,32.76
2023-04-22T01:58:27.287Z,33.78
2023-04-22T01:59:27.269Z,34.60
2023-04-22T02:00:27.269Z,35.72
2023-04-22T02:01:27.271Z,36.22
2023-04-22T02:02:27.343Z,37.05
2023-04-22T02:03:27.280Z,37.45
2023-04-22T02:04:27.299Z,39.39
2023-04-22T02:05:27.197Z,40.52
2023-04-22T02:06:27.181Z,41.03
2023-04-22T02:07:27.200Z,41.54
2023-04-22T02:08:27.151Z,42.87
2023-04-22T02:09:27.137Z,44.61
2023-04-22T02:10:27.154Z,45.33
2023-04-22T02:11:27.121Z,45.33
2023-04-22T02:12:27.125Z,45.84
2023-04-22T02:13:27.102Z,45.94
2023-04-22T02:14:27.086Z,45.74
2023-04-22T02:15:27.090Z,46.35
2023-04-22T02:16:27.114Z,46.86
2023-04-22T02:17:27.058Z,47.07
2023-04-22T02:18:27.021Z,47.68
2023-04-22T02:19:27.068Z,47.58
2023-04-22T02:20:26.994Z,47.89
2023-04-22T02:21:26.995Z,47.48
2023-04-22T02:22:26.989Z,48.09
2023-04-22T02:23:26.970Z,48.71
2023-04-22T02:24:26.937Z,49.52
2023-04-22T02:25:26.944Z,50.14
2023-04-22T02:26:26.912Z,50.85
2023-04-22T02:27:26.959Z,51.26
2023-04-22T02:28:26.889Z,51.16
2023-04-22T02:29:26.871Z,51.34
2023-04-22T02:30:26.870Z,51.54
2023-04-22T02:31:26.941Z,52.67
2023-04-22T02:32:26.909Z,53.08
2023-04-22T02:33:26.823Z,54.51
2023-04-22T02:34:26.795Z,55.02
2023-04-22T02:35:26.798Z,55.33
2023-04-22T02:36:26.789Z,56.15
2023-04-22T02:37:26.790Z,55.94
2023-04-22T02:38:26.739Z,56.66
2023-04-22T02:39:26.731Z,56.35
2023-04-22T02:40:26.734Z,56.87
2023-04-22T02:41:26.711Z,56.97
2023-04-22T02:42:26.710Z,57.38
2023-04-22T02:43:26.687Z,57.17
2023-04-22T02:44:26.672Z,57.38
2023-04-22T02:45:26.675Z,57.28
2023-04-22T02:46:26.659Z,57.17
2023-04-22T02:47:26.684Z,57.38
2023-04-22T02:48:26.607Z,57.38
2023-04-22T02:49:26.624Z,57.79
2023-04-22T02:50:26.600Z,58.29
2023-04-22T02:51:26.588Z,58.29
2023-04-22T02:52:26.589Z,58.40
2023-04-22T02:53:26.573Z,57.79
2023-04-22T02:54:26.537Z,58.20
2023-04-22T02:55:26.541Z,57.99
2023-04-22T02:56:26.507Z,57.99
2023-04-22T02:57:26.527Z,58.61
2023-04-22T02:58:26.491Z,59.01
2023-04-22T02:59:26.472Z,57.99
2023-04-22T03:00:26.461Z,57.68
2023-04-22T03:01:26.666Z,57.58
2023-04-22T03:02:26.561Z,57.58
2023-04-22T03:03:26.511Z,58.09
2023-04-22T03:04:26.508Z,58.02
2023-04-22T03:05:26.394Z,57.79
2023-04-22T03:06:26.374Z,57.48
2023-04-22T03:07:26.386Z,57.17
2023-04-22T03:08:26.344Z,56.66
2023-04-22T03:09:26.348Z,56.46
2023-04-22T03:10:26.352Z,56.25
2023-04-22T03:11:26.334Z,56.05
2023-04-22T03:12:26.311Z,56.15
2023-04-22T03:13:26.315Z,56.56
2023-04-22T03:14:26.260Z,56.66
2023-04-22T03:15:26.255Z,56.46
2023-04-22T03:16:26.300Z,56.97
2023-04-22T03:17:26.313Z,56.97
2023-04-22T03:18:26.226Z,57.38
2023-04-22T03:19:26.218Z,57.48
2023-04-22T03:20:26.191Z,57.81
2023-04-22T03:21:26.196Z,57.30
2023-04-22T03:22:26.185Z,57.61
2023-04-22T03:23:26.155Z,57.38
2023-04-22T03:24:26.159Z,57.48
2023-04-22T03:25:26.137Z,57.28
2023-04-22T03:26:26.105Z,57.48
2023-04-22T03:27:26.120Z,58.50
2023-04-22T03:28:26.097Z,58.20
2023-04-22T03:29:26.067Z,58.61
2023-04-22T03:30:26.069Z,58.50
2023-04-22T03:31:26.088Z,59.32
2023-04-22T03:32:26.051Z,59.63
2023-04-22T03:33:26.024Z,60.03
2023-04-22T03:34:26.011Z,60.44
2023-04-22T03:35:25.994Z,60.75
2023-04-22T03:36:25.984Z,60.44
2023-04-22T03:37:25.980Z,61.06
2023-04-22T03:38:25.960Z,61.06
2023-04-22T03:39:25.941Z,61.26
2023-04-22T03:40:25.921Z,61.88
2023-04-22T03:41:25.913Z,61.77
2023-04-22T03:42:25.922Z,62.49
2023-04-22T03:43:25.906Z,62.46
2023-04-22T03:44:25.856Z,62.59
2023-04-22T03:45:25.867Z,63.00
2023-04-22T03:46:25.936Z,63.39
2023-04-22T03:47:25.869Z,62.87
2023-04-22T03:48:25.832Z,63.59
2023-04-22T03:49:25.822Z,63.39
2023-04-22T03:50:25.821Z,64.10
2023-04-22T03:51:25.809Z,64.20
2023-04-22T03:52:25.782Z,64.51
2023-04-22T03:53:25.753Z,64.81
2023-04-22T03:54:25.761Z,65.53
2023-04-22T03:55:25.733Z,65.73
2023-04-22T03:56:25.745Z,65.63
2023-04-22T03:57:25.729Z,65.94
2023-04-22T03:58:25.687Z,66.35
2023-04-22T03:59:25.684Z,66.35
2023-04-22T04:00:25.663Z,66.45
2023-04-22T04:01:25.680Z,66.55
2023-04-22T04:02:25.788Z,66.45
2023-04-22T04:03:27.824Z,66.55
2023-04-22T04:04:25.789Z,66.45
2023-04-22T04:05:25.660Z,66.35
2023-04-22T04:06:25.579Z,65.84
2023-04-22T04:07:25.674Z,66.04
2023-04-22T04:08:25.558Z,65.12
2023-04-22T04:09:25.545Z,64.71
2023-04-22T04:10:25.532Z,64.00
2023-04-22T04:11:25.516Z,63.89
2023-04-22T04:12:25.518Z,63.79
2023-04-22T04:13:25.494Z,64.61
2023-04-22T04:14:25.485Z,64.81
2023-04-22T04:15:25.464Z,64.40
2023-04-22T04:16:25.515Z,64.71
2023-04-22T04:17:25.476Z,64.51
2023-04-22T04:18:25.427Z,64.71
2023-04-22T04:19:25.432Z,64.61
2023-04-22T04:20:25.413Z,64.71
2023-04-22T04:21:25.399Z,64.81
2023-04-22T04:22:25.384Z,65.33
2023-04-22T04:23:25.374Z,65.02
2023-04-22T04:24:25.357Z,65.33
2023-04-22T04:25:25.340Z,65.02
2023-04-22T04:26:25.341Z,65.22
2023-04-22T04:27:25.341Z,65.22
2023-04-22T04:28:25.332Z,65.22
2023-04-22T04:29:25.280Z,65.53
2023-04-22T04:30:25.275Z,65.63
2023-04-22T04:31:25.307Z,66.04
2023-04-22T04:32:25.310Z,66.35
2023-04-22T04:33:25.240Z,66.14
2023-04-22T04:34:25.202Z,66.35
2023-04-22T04:35:25.218Z,66.31
2023-04-22T04:36:25.194Z,66.62
2023-04-22T04:37:25.237Z,66.31
2023-04-22T04:38:25.161Z,65.91
2023-04-22T04:39:25.166Z,66.01
2023-04-22T04:40:25.164Z,65.70
2023-04-22T04:41:25.126Z,65.91
2023-04-22T04:42:25.125Z,65.80
2023-04-22T04:43:25.094Z,65.12
2023-04-22T04:44:25.083Z,65.19
2023-04-22T04:45:25.084Z,65.53
2023-04-22T04:46:25.061Z,65.30
2023-04-22T04:47:25.099Z,66.01
2023-04-22T04:48:25.049Z,65.60
2023-04-22T04:49:25.015Z,66.21
2023-04-22T04:50:24.992Z,65.80
2023-04-22T04:51:24.985Z,66.01
2023-04-22T04:52:24.983Z,66.01
2023-04-22T04:53:24.972Z,66.83
2023-04-22T04:54:24.945Z,66.62
2023-04-22T04:55:24.935Z,66.93
2023-04-22T04:56:24.924Z,66.62
2023-04-22T04:57:24.940Z,66.72
2023-04-22T04:58:24.894Z,66.62
2023-04-22T04:59:24.881Z,66.42
2023-04-22T05:00:24.871Z,66.42
2023-04-22T05:01:24.880Z,66.62
2023-04-22T05:02:25.143Z,67.13
2023-04-22T05:03:24.997Z,67.24
2023-04-22T05:04:25.108Z,67.75
2023-04-22T05:05:24.811Z,67.75
2023-04-22T05:06:24.791Z,68.12
2023-04-22T05:07:24.812Z,68.53
2023-04-22T05:08:24.826Z,68.87
2023-04-22T05:09:24.755Z,69.04
2023-04-22T05:10:24.732Z,68.74
2023-04-22T05:11:24.733Z,68.84
2023-04-22T05:12:24.741Z,69.15
2023-04-22T05:13:24.692Z,69.45
2023-04-22T05:14:24.680Z,69.45
2023-04-22T05:15:24.668Z,69.45
2023-04-22T05:16:24.682Z,69.56
2023-04-22T05:17:24.715Z,70.57
2023-04-22T05:18:24.633Z,71.09
2023-04-22T05:19:24.631Z,72.11
2023-04-22T05:20:24.607Z,72.07
2023-04-22T05:21:24.599Z,71.77
2023-04-22T05:22:24.590Z,72.48
2023-04-22T05:23:24.566Z,73.10
2023-04-22T05:24:24.560Z,74.11
2023-04-22T05:25:24.543Z,74.42
2023-04-22T05:26:24.522Z,74.63
2023-04-22T05:27:24.525Z,74.49
2023-04-22T05:28:24.492Z,74.49
2023-04-22T05:29:24.486Z,75.31
2023-04-22T05:30:24.467Z,75.61
2023-04-22T05:31:24.487Z,75.71
2023-04-22T05:32:24.679Z,75.31
2023-04-22T05:33:24.444Z,75.92
2023-04-22T05:34:24.417Z,75.82
2023-04-22T05:35:24.451Z,76.53
2023-04-22T05:36:24.404Z,76.84
2023-04-22T05:37:24.397Z,76.50
2023-04-22T05:38:24.416Z,75.88
2023-04-22T05:39:24.350Z,75.98
2023-04-22T05:40:24.342Z,76.39
2023-04-22T05:41:24.329Z,76.80
2023-04-22T05:42:24.323Z,77.72
2023-04-22T05:43:24.306Z,78.33
2023-04-22T05:44:24.284Z,77.00
2023-04-22T05:45:24.268Z,77.11
2023-04-22T05:46:24.388Z,76.50
2023-04-22T05:47:24.288Z,76.29
2023-04-22T05:48:24.265Z,77.82
2023-04-22T05:49:24.249Z,78.12
2023-04-22T05:50:24.199Z,77.21
2023-04-22T05:51:24.186Z,77.31
2023-04-22T05:52:24.211Z,78.09
2023-04-22T05:53:24.173Z,77.78
2023-04-22T05:54:24.148Z,78.60
2023-04-22T05:55:24.156Z,79.45
2023-04-22T05:56:24.142Z,79.14
2023-04-22T05:57:24.190Z,79.86
2023-04-22T05:58:24.090Z,78.50
2023-04-22T05:59:24.079Z,79.86
2023-04-22T06:00:24.066Z,78.91
2023-04-22T06:01:24.059Z,78.91
2023-04-22T06:02:24.213Z,79.72
2023-04-22T06:03:24.190Z,80.43
2023-04-22T06:04:24.561Z,80.54
2023-04-22T06:05:24.064Z,81.25
2023-04-22T06:06:23.976Z,81.15
2023-04-22T06:07:23.992Z,82.68
2023-04-22T06:08:23.962Z,82.64
2023-04-22T06:09:23.954Z,82.43
2023-04-22T06:10:23.934Z,82.54
2023-04-22T06:11:23.925Z,82.33
2023-04-22T06:12:23.923Z,82.94
2023-04-22T06:13:23.901Z,83.45
2023-04-22T06:14:23.878Z,82.84
2023-04-22T06:15:23.865Z,83.86
2023-04-22T06:16:23.846Z,83.35
2023-04-22T06:17:23.896Z,84.98
2023-04-22T06:18:23.863Z,84.94
2023-04-22T06:19:23.816Z,85.35
2023-04-22T06:20:23.834Z,84.64
2023-04-22T06:21:23.805Z,85.14
2023-04-22T06:22:23.819Z,86.27
2023-04-22T06:23:23.771Z,86.16
2023-04-22T06:24:23.750Z,85.86
2023-04-22T06:25:23.729Z,86.16
2023-04-22T06:26:23.729Z,86.37
2023-04-22T06:27:23.735Z,86.88
2023-04-22T06:28:23.692Z,86.68
2023-04-22T06:29:23.681Z,86.06
2023-04-22T06:30:23.680Z,86.57
2023-04-22T06:31:23.695Z,87.08
2023-04-22T06:32:23.673Z,87.08
2023-04-22T06:33:23.638Z,87.55
2023-04-22T06:34:23.613Z,87.04
2023-04-22T06:35:23.600Z,87.14
2023-04-22T06:36:23.598Z,87.35
2023-04-22T06:37:23.582Z,87.65
2023-04-22T06:38:23.573Z,88.16
2023-04-22T06:39:23.546Z,88.46
2023-04-22T06:40:23.534Z,88.02
2023-04-22T06:41:23.554Z,87.81
2023-04-22T06:42:23.517Z,88.53
2023-04-22T06:43:23.521Z,89.03
2023-04-22T06:44:23.481Z,89.03
2023-04-22T06:45:23.464Z,89.14
2023-04-22T06:46:23.491Z,89.75
2023-04-22T06:47:23.505Z,89.44
2023-04-22T06:48:23.431Z,89.54
2023-04-22T06:49:23.418Z,89.54
2023-04-22T06:50:23.406Z,90.11
2023-04-22T06:51:23.407Z,91.13
2023-04-22T06:52:24.234Z,91.13
2023-04-22T06:53:23.372Z,90.31
2023-04-22T06:54:23.365Z,90.42
2023-04-22T06:55:23.336Z,90.88
2023-04-22T06:56:23.319Z,90.88
2023-04-22T06:57:23.309Z,92.21
2023-04-22T06:58:23.306Z,91.09
2023-04-22T06:59:23.270Z,92.10
2023-04-22T07:00:23.267Z,92.61
2023-04-22T07:01:23.279Z,92.51
2023-04-22T07:02:23.401Z,91.90
2023-04-22T07:03:23.414Z,93.28
2023-04-22T07:04:23.220Z,92.06
2023-04-22T07:05:23.196Z,92.67
2023-04-22T07:06:23.184Z,93.18
2023-04-22T07:07:23.166Z,93.64
2023-04-22T07:08:23.195Z,93.44
2023-04-22T07:09:23.139Z,93.09
2023-04-22T07:10:23.125Z,94.41
2023-04-22T07:11:23.104Z,94.21
2023-04-22T07:12:23.159Z,94.31
2023-04-22T07:13:23.090Z,93.80
2023-04-22T07:14:23.088Z,93.86
2023-04-22T07:15:23.063Z,94.17
2023-04-22T07:16:23.073Z,94.06
2023-04-22T07:17:23.105Z,94.37
2023-04-22T07:18:23.025Z,95.79
2023-04-22T07:19:23.005Z,95.07
2023-04-22T07:20:23.008Z,95.28
2023-04-22T07:21:22.973Z,95.28
2023-04-22T07:22:23.015Z,94.87
2023-04-22T07:23:22.946Z,94.67
2023-04-22T07:24:22.936Z,95.28
2023-04-22T07:25:22.942Z,94.46
2023-04-22T07:26:22.931Z,95.58
2023-04-22T07:27:22.915Z,96.19
2023-04-22T07:28:22.897Z,96.19
2023-04-22T07:29:22.878Z,96.09
2023-04-22T07:30:22.875Z,95.74
2023-04-22T07:31:22.884Z,95.74
2023-04-22T07:32:22.881Z,96.25
2023-04-22T07:33:22.846Z,96.66
2023-04-22T07:34:22.811Z,96.35
2023-04-22T07:35:22.793Z,95.94
2023-04-22T07:36:22.787Z,95.64
2023-04-22T07:37:22.776Z,95.74
2023-04-22T07:38:22.763Z,95.50
2023-04-22T07:39:22.764Z,96.00
2023-04-22T07:40:22.737Z,96.30
2023-04-22T07:41:22.707Z,95.90
2023-04-22T07:42:22.708Z,95.95
2023-04-22T07:43:22.713Z,96.36
2023-04-22T07:44:22.696Z,96.66
2023-04-22T07:45:22.676Z,96.56
2023-04-22T07:46:22.726Z,96.36
2023-04-22T07:47:22.677Z,96.56
2023-04-22T07:48:22.625Z,97.27
2023-04-22T07:49:22.625Z,96.77
2023-04-22T07:50:22.588Z,96.42
2023-04-22T07:51:22.605Z,97.13
2023-04-22T07:52:22.567Z,97.02
2023-04-22T07:53:22.615Z,96.92
2023-04-22T07:54:22.527Z,96.92
2023-04-22T07:55:22.539Z,97.02
2023-04-22T07:56:22.580Z,96.78
2023-04-22T07:57:22.543Z,96.88
2023-04-22T07:58:22.492Z,97.08
2023-04-22T07:59:22.469Z,96.83
2023-04-22T08:00:22.468Z,96.63
2023-04-22T08:01:22.483Z,96.73
2023-04-22T08:02:22.569Z,96.73
2023-04-22T08:03:22.535Z,96.69
2023-04-22T08:04:22.574Z,96.98
2023-04-22T08:05:22.408Z,96.18
2023-04-22T08:06:22.408Z,95.92
2023-04-22T08:08:22.375Z,96.12
2023-04-22T08:09:22.351Z,96.57
2023-04-22T08:10:22.337Z,96.67
2023-04-22T08:11:22.355Z,96.57
2023-04-22T08:12:22.315Z,96.73
2023-04-22T08:13:22.311Z,96.33
2023-04-22T08:14:22.269Z,96.02
2023-04-22T08:15:22.275Z,96.22
2023-04-22T08:16:22.398Z,96.58
2023-04-22T08:17:22.330Z,96.69
2023-04-22T08:18:22.224Z,95.67
2023-04-22T08:19:22.209Z,96.23
2023-04-22T08:20:22.229Z,95.43
2023-04-22T08:21:22.198Z,95.83
2023-04-22T08:22:22.196Z,96.03
2023-04-22T08:23:22.174Z,94.51
2023-04-22T08:24:22.143Z,95.38
2023-04-22T08:25:22.134Z,95.68
2023-04-22T08:26:22.122Z,95.78
2023-04-22T08:27:22.124Z,95.64
2023-04-22T08:28:22.097Z,94.02
2023-04-22T08:29:22.084Z,91.39
2023-04-22T08:30:22.101Z,92.50
2023-04-22T08:31:22.113Z,89.07
2023-04-22T08:32:22.111Z,89.13
2023-04-22T08:33:22.025Z,88.93
2023-04-22T08:34:22.022Z,90.85
2023-04-22T08:35:22.000Z,90.45
2023-04-22T08:36:21.987Z,91.05
2023-04-22T08:37:22.045Z,89.94
2023-04-22T08:38:21.976Z,91.25
2023-04-22T08:39:21.956Z,90.04
2023-04-22T08:40:21.949Z,85.90
2023-04-22T08:41:21.938Z,89.43
2023-04-22T08:42:21.925Z,84.89
2023-04-22T08:43:21.898Z,86.00
2023-04-22T08:44:21.892Z,89.34
2023-04-22T08:45:21.875Z,88.83
2023-04-22T08:46:21.882Z,84.19
2023-04-22T08:47:21.881Z,85.30
2023-04-22T08:48:21.831Z,87.32
2023-04-22T08:49:21.808Z,83.78
2023-04-22T08:50:21.854Z,80.76
2023-04-22T08:51:21.821Z,80.51
2023-04-22T08:52:21.773Z,78.90
2023-04-22T08:53:23.823Z,78.84
2023-04-22T08:54:21.750Z,83.54
2023-04-22T08:55:21.732Z,82.53
2023-04-22T08:56:21.734Z,82.84
2023-04-22T08:57:21.707Z,81.32
2023-04-22T08:58:21.706Z,76.28
2023-04-22T08:59:21.674Z,79.71
2023-04-22T09:00:21.706Z,81.02
2023-04-22T09:01:21.702Z,80.78
2023-04-22T09:02:21.705Z,80.18
2023-04-22T09:03:21.677Z,82.70
2023-04-22T09:04:21.708Z,78.02
2023-04-22T09:05:21.607Z,86.79
2023-04-22T09:06:21.604Z,83.06
2023-04-22T09:07:21.584Z,78.72
2023-04-22T09:08:21.554Z,75.06
2023-04-22T09:09:21.544Z,76.17
2023-04-22T09:10:21.529Z,75.67
2023-04-22T09:11:21.512Z,77.17
2023-04-22T09:12:21.538Z,80.40
2023-04-22T09:13:21.501Z,74.46
2023-04-22T09:14:21.483Z,76.64
2023-04-22T09:15:21.468Z,75.73
2023-04-22T09:16:21.541Z,77.40
2023-04-22T09:17:21.450Z,74.49
2023-04-22T09:18:21.430Z,75.19
2023-04-22T09:19:21.409Z,73.58
2023-04-22T09:20:21.408Z,73.28
2023-04-22T09:21:21.391Z,76.50
2023-04-22T09:22:21.407Z,75.49
2023-04-22T09:23:21.351Z,71.87
2023-04-22T09:24:21.355Z,73.08
2023-04-22T09:25:21.357Z,73.48
2023-04-22T09:26:21.331Z,71.53
2023-04-22T09:27:21.306Z,74.95
2023-04-22T09:28:21.333Z,72.00
2023-04-22T09:29:21.282Z,71.60
2023-04-22T09:30:21.268Z,71.40
2023-04-22T09:31:21.249Z,68.59
2023-04-22T09:32:21.252Z,67.88
2023-04-22T09:33:21.242Z,68.45
2023-04-22T09:34:21.218Z,65.13
2023-04-22T09:35:21.206Z,67.55
2023-04-22T09:36:21.187Z,67.01
2023-04-22T09:37:21.170Z,65.27
2023-04-22T09:38:21.179Z,66.28
2023-04-22T09:39:21.137Z,62.96
2023-04-22T09:40:21.136Z,63.67
2023-04-22T09:41:21.116Z,63.67
2023-04-22T09:42:21.126Z,63.46
2023-04-22T09:43:21.133Z,64.77
2023-04-22T09:44:21.087Z,64.34
2023-04-22T09:45:21.064Z,63.03
2023-04-22T09:46:21.170Z,62.73
2023-04-22T09:47:21.047Z,62.43
2023-04-22T09:48:21.031Z,63.13
2023-04-22T09:49:21.020Z,65.14
2023-04-22T09:50:21.019Z,62.10
2023-04-22T09:51:20.999Z,63.31
2023-04-22T09:52:20.984Z,61.40
2023-04-22T09:53:20.967Z,61.50
2023-04-22T09:54:20.956Z,61.40
2023-04-22T09:55:20.939Z,61.67
2023-04-22T09:56:20.965Z,61.27
2023-04-22T09:57:20.907Z,62.34
2023-04-22T09:58:20.899Z,61.14
2023-04-22T09:59:20.873Z,60.47
2023-04-22T10:00:20.911Z,61.36
2023-04-22T10:01:20.921Z,61.47
2023-04-22T10:02:20.883Z,61.97
2023-04-22T10:03:20.910Z,61.17
2023-04-22T10:04:20.901Z,60.29
2023-04-22T10:05:20.805Z,61.70
2023-04-22T10:06:20.786Z,61.07
2023-04-22T10:07:20.808Z,60.66
2023-04-22T10:08:20.781Z,62.37
2023-04-22T10:09:20.745Z,62.47
2023-04-22T10:10:20.741Z,62.67
2023-04-22T10:11:20.737Z,62.87
2023-04-22T10:12:29.450Z,60.86
2023-04-22T10:13:21.719Z,60.06
2023-04-22T10:14:20.755Z,60.64
2023-04-22T10:15:20.674Z,61.94
2023-04-22T10:16:20.701Z,59.83
2023-04-22T10:17:20.669Z,61.44
2023-04-22T10:18:20.630Z,60.74
2023-04-22T10:19:20.619Z,61.71
2023-04-22T10:20:20.603Z,60.48
2023-04-22T10:21:20.593Z,59.15
2023-04-22T10:22:20.588Z,58.22
2023-04-22T10:23:20.549Z,57.97
2023-04-22T10:24:20.560Z,55.44
2023-04-22T10:25:20.547Z,55.19
2023-04-22T10:26:20.530Z,52.67
2023-04-22T10:27:20.536Z,52.67
2023-04-22T10:28:20.507Z,52.89
2023-04-22T10:29:20.481Z,53.27
2023-04-22T10:30:20.471Z,55.02
2023-04-22T10:31:20.524Z,55.82
2023-04-22T10:32:20.492Z,55.47
2023-04-22T10:33:20.422Z,52.92
2023-04-22T10:34:20.414Z,52.67
2023-04-22T10:35:20.401Z,52.34
2023-04-22T10:36:20.405Z,50.95
2023-04-22T10:37:20.376Z,53.77
2023-04-22T10:38:20.364Z,53.29
2023-04-22T10:39:20.342Z,53.74
2023-04-22T10:40:20.325Z,53.42
2023-04-22T10:41:20.333Z,53.19
2023-04-22T10:42:20.292Z,52.87
2023-04-22T10:43:20.304Z,51.87
2023-04-22T10:44:20.274Z,51.95
2023-04-22T10:45:20.266Z,51.35
2023-04-22T10:46:20.285Z,51.45
2023-04-22T10:47:20.237Z,51.62
2023-04-22T10:48:20.233Z,51.72
2023-04-22T10:49:20.205Z,52.39
2023-04-22T10:50:20.190Z,51.17
2023-04-22T10:51:20.349Z,51.37
2023-04-22T10:52:20.190Z,50.60
2023-04-22T10:53:20.158Z,50.65
2023-04-22T10:54:20.135Z,50.25
2023-04-22T10:55:20.140Z,49.53
2023-04-22T10:56:20.126Z,48.34
2023-04-22T10:57:20.127Z,50.03
2023-04-22T10:58:20.103Z,48.64
2023-04-22T10:59:20.090Z,49.36
2023-04-22T11:00:20.071Z,48.41
2023-04-22T11:01:20.070Z,48.52
2023-04-22T11:02:20.118Z,48.52
2023-04-22T11:03:20.282Z,48.89
2023-04-22T11:04:20.114Z,48.11
2023-04-22T11:05:20.010Z,47.82
2023-04-22T11:06:19.980Z,47.32
2023-04-22T11:07:20.006Z,46.95
2023-04-22T11:08:19.970Z,47.25
2023-04-22T11:09:19.954Z,48.69
2023-04-22T11:10:19.938Z,47.00
2023-04-22T11:11:19.997Z,46.83
2023-04-22T11:12:19.914Z,48.07
2023-04-22T11:13:19.911Z,49.73
2023-04-22T11:14:19.889Z,50.87
2023-04-22T11:15:19.896Z,51.47
2023-04-22T11:16:20.538Z,51.50
2023-04-22T11:17:19.855Z,52.72
2023-04-22T11:18:19.868Z,53.44
2023-04-22T11:19:19.830Z,53.37
2023-04-22T11:20:19.812Z,53.79
2023-04-22T11:21:19.818Z,54.19
2023-04-22T11:22:19.798Z,55.12
2023-04-22T11:23:19.790Z,55.22
2023-04-22T11:24:19.754Z,55.42
2023-04-22T11:25:19.758Z,56.12
2023-04-22T11:26:19.734Z,56.22
2023-04-22T11:27:19.723Z,57.02
2023-04-22T11:28:21.593Z,56.82
2023-04-22T11:29:19.717Z,55.24
2023-04-22T11:30:19.680Z,57.05
2023-04-22T11:31:19.763Z,56.72
2023-04-22T11:32:19.643Z,55.19
2023-04-22T11:33:19.656Z,55.69
2023-04-22T11:34:19.628Z,55.40
2023-04-22T11:35:19.647Z,54.11
2023-04-22T11:36:19.621Z,52.92
2023-04-22T11:37:19.598Z,51.47
2023-04-22T11:38:19.589Z,50.95
2023-04-22T11:39:19.568Z,51.50
2023-04-22T11:41:19.575Z,51.72
2023-04-22T11:42:19.518Z,52.87
2023-04-22T11:43:19.549Z,53.29
2023-04-22T11:44:19.518Z,53.72
2023-04-22T11:45:19.479Z,53.97
2023-04-22T11:46:21.075Z,55.29
2023-04-22T11:47:19.460Z,56.12
2023-04-22T11:48:19.441Z,57.22
2023-04-22T11:49:19.449Z,57.24
2023-04-22T11:50:19.431Z,57.45
2023-04-22T11:51:19.428Z,58.55
2023-04-22T11:52:19.695Z,57.85
2023-04-22T11:53:19.457Z,57.62
2023-04-22T11:54:19.376Z,57.32
2023-04-22T11:55:19.363Z,55.49
2023-04-22T11:56:19.366Z,55.42
2023-04-22T11:57:19.336Z,54.54
2023-04-22T11:58:19.320Z,53.36
2023-04-22T11:59:19.302Z,52.34
2023-04-22T12:00:19.278Z,51.77
2023-04-22T12:01:19.292Z,49.95
2023-04-22T12:02:19.427Z,50.65
2023-04-22T12:03:19.544Z,50.03
2023-04-22T12:04:19.273Z,50.05
2023-04-22T12:05:19.248Z,46.88
2023-04-22T12:06:19.202Z,47.45
2023-04-22T12:07:19.196Z,48.05
2023-04-22T12:08:19.206Z,47.41
2023-04-22T12:09:19.175Z,47.43
2023-04-22T12:10:19.156Z,47.78
2023-04-22T12:11:19.187Z,46.59
2023-04-22T12:12:19.132Z,46.59
2023-04-22T12:13:19.127Z,47.80
2023-04-22T12:14:19.108Z,47.31
2023-04-22T12:15:19.086Z,46.97
2023-04-22T12:16:19.524Z,47.14
2023-04-22T12:17:19.064Z,47.52
2023-04-22T12:18:19.054Z,44.90
2023-04-22T12:19:19.052Z,43.73
2023-04-22T12:20:19.018Z,45.53
2023-04-22T12:21:19.044Z,45.71
2023-04-22T12:22:18.999Z,44.31
2023-04-22T12:23:18.993Z,45.29
2023-04-22T12:24:18.977Z,44.45
2023-04-22T12:25:18.966Z,45.57
2023-04-22T12:26:18.985Z,45.40
2023-04-22T12:27:18.943Z,45.62
2023-04-22T12:28:18.922Z,47.03
2023-04-22T12:29:18.914Z,47.80
2023-04-22T12:30:18.892Z,49.43
2023-04-22T12:31:19.008Z,49.61
2023-04-22T12:32:18.876Z,48.71
2023-04-22T12:33:18.887Z,49.43
2023-04-22T12:34:18.845Z,50.03
2023-04-22T12:35:18.846Z,50.03
2023-04-22T12:36:18.825Z,50.63
2023-04-22T12:37:18.815Z,50.70
2023-04-22T12:38:18.823Z,48.79
2023-04-22T12:39:18.806Z,49.29
2023-04-22T12:40:18.776Z,48.81
2023-04-22T12:41:18.847Z,50.15
2023-04-22T12:42:18.758Z,50.70
2023-04-22T12:43:18.783Z,52.92
2023-04-22T12:44:18.741Z,52.81
2023-04-22T12:45:18.740Z,52.94
2023-04-22T12:46:18.742Z,53.17
2023-04-22T12:47:18.738Z,52.37
2023-04-22T12:48:18.713Z,54.19
2023-04-22T12:49:18.675Z,54.91
2023-04-22T12:50:18.662Z,56.61
2023-04-22T12:51:18.668Z,54.09
2023-04-22T12:52:18.640Z,54.79
2023-04-22T12:53:18.617Z,55.49
2023-04-22T12:54:18.597Z,55.81